Dobrodošli na spletni strani vremenske postaje Senovo. Vse informacije so informativnega značaja, saj vremenska postaja ni del državne mreže meteoroloških postaj. AKTUALNIH OBVESTIL NI.


Sneg/Led Od: 21-02-2018 00:00 Do: 23-02-2018 23:59 Opozorilo za: Sneg/Led Stopnja: Rumena info button
Veter Od: 21-02-2018 00:00 Do: 22-02-2018 23:59 Opozorilo za: Veter Stopnja: Rumena info button

Pogled proti Armezu več informacij Pogled proti Armezu


Lisca več informacij Lisca


Radar strel več informacij blitzortung!


opozorilo za sneg/led več informacij rain snow radar


Obiščite še:

Template documentation
and downloads

And another site



Weather Underground, zgodovina - Tekstovno

Dnevni povzetek za December 28, 2017 Enote:  Metrično    Angleško   Obe
« Predhodni Dan
Naslednji Dan »
Dnevni Tedenski Mesečni Letni Po meri
  Višja: Nižja: Povprečje:
Temperatura: -17.8 °C -17.4 °C -15.2 °C
Točka rosišča: -17.8 °C -18.3 °C -16.2 °C
Vlažnost: Humidity % 82 % 88 %
Hitrost vetra: 0 km/h 0 km/h 4.7 km/h
Sunki vetra: 0 km/h - -
Veter:- - SSE
Zračni tlak: 0 hPa 33352.1 hPa -
Padavine: 497.84 mm    
Historical Graphs
 
 
Tabelarni podarki za December 28, 2017
Čas Temperatura Točka rosišča Zračni tlak Veter Hitrost vetra Sunki vetra Vlažnost Intenziteta padavin (urna)
-17.8 °C -17.8 °C 0 hPa Calm     Humidity % 0 mm
00:04 -12.8 °C -14.4 °C 33419.8 hPa East 8 km/h 23 km/h 82 % 0 mm
00:05 -12.8 °C -14.4 °C 33419.8 hPa East 9 km/h 23 km/h 82 % 0 mm
00:10 -12.8 °C -14.4 °C 33419.8 hPa East 10.3 km/h 23 km/h 82 % 0 mm
00:16 -12.8 °C -14.4 °C 33386 hPa ESE 11.6 km/h 60.8 km/h 82 % 0 mm
00:17 -12.8 °C -14.4 °C 33386 hPa SSE 15 km/h 60.8 km/h 82 % 0 mm
00:18 -12.8 °C -14.4 °C 33386 hPa SSW 15 km/h 60.8 km/h 82 % 0 mm
00:23 -12.8 °C -14.4 °C 33386 hPa South 14.5 km/h 60.8 km/h 82 % 0 mm
00:26 -12.8 °C -14.4 °C 33386 hPa ESE 10.9 km/h 38.3 km/h 82 % 0 mm
00:27 -12.8 °C -14.4 °C 33386 hPa ENE 7.6 km/h 15.6 km/h 82 % 0 mm
00:32 -12.8 °C -14.4 °C 33419.8 hPa WNW 7.7 km/h 22 km/h 82 % 0 mm
00:37 -12.8 °C -14.4 °C 33419.8 hPa SW 9 km/h 22 km/h 82 % 0 mm
00:38 -12.8 °C -14.4 °C 33419.8 hPa SW 8.9 km/h 22 km/h 82 % 0 mm
00:43 -12.8 °C -14.4 °C 33419.8 hPa South 8.5 km/h 19.6 km/h 82 % 0 mm
00:48 -12.8 °C -14.4 °C 33419.8 hPa SSE 8.2 km/h 20.3 km/h 82 % 0 mm
00:50 -12.8 °C -14.4 °C 33419.8 hPa ESE 8.5 km/h 20.3 km/h 82 % 0 mm
00:55 -12.8 °C -14.4 °C 33419.8 hPa East 11.9 km/h 34.1 km/h 82 % 0 mm
00:58 -12.8 °C -14.4 °C 33419.8 hPa East 14 km/h 34.1 km/h 82 % 0 mm
01:01 -12.8 °C -14.4 °C 33419.8 hPa East 15 km/h 34.1 km/h 82 % 0 mm
01:05 -12.8 °C -14.4 °C 33419.8 hPa SE 11.9 km/h 20.9 km/h 82 % 0 mm
01:10 -12.8 °C -14.4 °C 33419.8 hPa East 11.9 km/h 22 km/h 82 % 0 mm
01:12 -12.8 °C -14.4 °C 33419.8 hPa East 11.1 km/h 22 km/h 82 % 0 mm
01:17 -12.8 °C -14.4 °C 33386 hPa ENE 10.3 km/h 22 km/h 82 % 0 mm
01:18 -12.8 °C -14.4 °C 33386 hPa ENE 10.1 km/h 22 km/h 82 % 0 mm
01:23 -12.8 °C -14.4 °C 33386 hPa ENE 11.4 km/h 24.3 km/h 82 % 0 mm
01:26 -12.8 °C -14.4 °C 33386 hPa ENE 12.7 km/h 26.2 km/h 82 % 0 mm
01:28 -12.8 °C -14.4 °C 33352.1 hPa East 13.5 km/h 26.2 km/h 82 % 0 mm
01:33 -12.8 °C -14.4 °C 33352.1 hPa East 16.1 km/h 44.1 km/h 82 % 0 mm
01:35 -12.8 °C -14.4 °C 33352.1 hPa East 15.3 km/h 44.1 km/h 82 % 7.62 mm
01:36 -12.8 °C -14.4 °C 33352.1 hPa ESE 15 km/h 44.1 km/h 82 % 7.62 mm
01:41 -12.8 °C -14.4 °C 33352.1 hPa East 12.4 km/h 22 km/h 82 % 7.62 mm
01:44 -12.8 °C -14.4 °C 33386 hPa East 11.1 km/h 22 km/h 82 % 7.62 mm
01:47 -12.8 °C -14.4 °C 33386 hPa ENE 10.6 km/h 30.7 km/h 82 % 7.62 mm
01:52 -12.8 °C -14.4 °C 33386 hPa ENE 12.4 km/h 30.7 km/h 82 % 7.62 mm
01:57 -12.8 °C -14.4 °C 33386 hPa NNE 12.7 km/h 26.2 km/h 82 % 7.62 mm
02:01 -12.8 °C -14.4 °C 33386 hPa NNW 11.9 km/h 19.2 km/h 82 % 7.62 mm
02:06 -12.8 °C -14.4 °C 33386 hPa NNW 10.6 km/h 22.5 km/h 82 % 7.62 mm
02:07 -12.8 °C -14.4 °C 33386 hPa NNW 10.6 km/h 22.5 km/h 82 % 7.62 mm
02:12 -12.8 °C -14.4 °C 33386 hPa North 9 km/h 22.5 km/h 82 % 7.62 mm
02:13 -12.8 °C -14.4 °C 33386 hPa NNW 9.7 km/h 22.5 km/h 82 % 7.62 mm
02:18 -12.8 °C -14.4 °C 33386 hPa NNW 9.3 km/h 33.6 km/h 82 % 7.62 mm
02:23 -12.8 °C -14.4 °C 33386 hPa WNW 12.2 km/h 33.6 km/h 82 % 7.62 mm
02:25 -12.8 °C -14.4 °C 33386 hPa WNW 12.7 km/h 33.6 km/h 82 % 7.62 mm
02:26 -12.8 °C -14.4 °C 33386 hPa WNW 12.7 km/h 31.9 km/h 82 % 7.62 mm
02:31 -12.8 °C -14.4 °C 33419.8 hPa WNW 9.7 km/h 24.3 km/h 82 % 7.62 mm
02:36 -12.8 °C -14.4 °C 33419.8 hPa NW 10.1 km/h 26.2 km/h 82 % 7.62 mm
02:37 -12.8 °C -14.4 °C 33419.8 hPa NW 10.3 km/h 26.2 km/h 82 % 7.62 mm
02:42 -12.8 °C -14.4 °C 33419.8 hPa WNW 11.6 km/h 37.5 km/h 82 % 12.7 mm
02:44 -12.8 °C -14.4 °C 33453.7 hPa West 11.9 km/h 37.5 km/h 82 % 20.32 mm
02:49 -12.8 °C -14.4 °C 33453.7 hPa WSW 18.2 km/h 39.9 km/h 82 % 33.02 mm
02:54 -12.8 °C -14.4 °C 33453.7 hPa WSW 18.2 km/h 39.9 km/h 82 % 38.1 mm
02:55 -12.8 °C -14.4 °C 33453.7 hPa WSW 18.2 km/h 39.9 km/h 82 % 45.72 mm
02:58 -12.8 °C -14.4 °C 33419.8 hPa WSW 15.8 km/h 26.2 km/h 82 % 45.72 mm
03:01 -12.8 °C -14.4 °C 33419.8 hPa WSW 14.2 km/h 26.2 km/h 82 % 50.8 mm
03:05 -12.8 °C -14.4 °C 33419.8 hPa WNW 10.3 km/h 20.3 km/h 82 % 58.42 mm
03:06 -12.8 °C -14.4 °C 33419.8 hPa WNW 8.5 km/h 20.3 km/h 82 % 58.42 mm
03:11 -12.8 °C -14.4 °C 33419.8 hPa WNW 7.7 km/h 16.3 km/h 82 % 58.42 mm
03:15 -12.8 °C -14.4 °C 33386 hPa WNW 8 km/h 16.3 km/h 82 % 63.5 mm
03:17 -12.8 °C -14.4 °C 33386 hPa WNW 7.7 km/h 15 km/h 82 % 63.5 mm
03:22 -12.8 °C -14.4 °C 33386 hPa WNW 7.2 km/h 15 km/h 82 % 63.5 mm
03:26 -12.8 °C -14.4 °C 33386 hPa WNW 8.2 km/h 14.5 km/h 82 % 63.5 mm
03:31 -12.8 °C -14.4 °C 33419.8 hPa WNW 6.9 km/h 14.5 km/h 82 % 63.5 mm
03:32 -12.8 °C -14.4 °C 33419.8 hPa WNW 6.3 km/h 14 km/h 82 % 63.5 mm
03:37 -12.8 °C -14.4 °C 33419.8 hPa NW 4.3 km/h 8 km/h 82 % 58.42 mm
03:42 -12.8 °C -14.4 °C 33419.8 hPa NW 4.2 km/h 8 km/h 82 % 50.8 mm
03:43 -12.8 °C -14.4 °C 33419.8 hPa WNW 3.9 km/h 8 km/h 82 % 50.8 mm
03:48 -12.8 °C -14.4 °C 33419.8 hPa NW 0.8 km/h 8 km/h 82 % 33.02 mm
03:50 -12.8 °C -14.4 °C 33419.8 hPa Calm     82 % 33.02 mm
03:55 -12.8 °C -14.4 °C 33419.8 hPa SW 1.3 km/h 7.6 km/h 82 % 25.4 mm
03:56 -12.8 °C -14.4 °C 33419.8 hPa SW 1.3 km/h 7.6 km/h 82 % 25.4 mm
03:57 -12.8 °C -14.4 °C 33419.8 hPa SW 1.3 km/h 7.6 km/h 82 % 20.32 mm
04:01 -12.8 °C -14.4 °C 33419.8 hPa SW 1.3 km/h 7.6 km/h 82 % 12.7 mm
04:03 -12.8 °C -14.4 °C 33419.8 hPa SW 0.8 km/h 5.1 km/h 82 % 12.7 mm
04:07 -12.8 °C -14.4 °C 33419.8 hPa NW 0.5 km/h 5.1 km/h 82 % 7.62 mm
04:12 -12.8 °C -14.4 °C 33419.8 hPa NW 0.5 km/h 5.1 km/h 82 % 7.62 mm
04:17 -12.8 °C -14.4 °C 33386 hPa Calm     82 % 7.62 mm
04:22 -12.8 °C -14.4 °C 33386 hPa Calm     82 % 0 mm
04:24 -12.8 °C -14.4 °C 33386 hPa Calm     82 % 0 mm
04:26 -12.8 °C -14.4 °C 33386 hPa Calm     82 % 0 mm
04:30 -12.8 °C -14.4 °C 33419.8 hPa Calm     82 % 0 mm
04:35 -12.8 °C -14.4 °C 33419.8 hPa Calm     82 % 0 mm
04:36 -12.8 °C -14.4 °C 33419.8 hPa Calm     82 % 0 mm
04:41 -12.8 °C -14.4 °C 33419.8 hPa NW 0.3 km/h 5.1 km/h 82 % 0 mm
04:43 -12.8 °C -14.4 °C 33419.8 hPa NW 0.3 km/h 7.6 km/h 82 % 0 mm
04:48 -12.8 °C -14.4 °C 33419.8 hPa West 3.7 km/h 8.9 km/h 82 % 0 mm
04:51 -12.8 °C -14.4 °C 33419.8 hPa West 3.7 km/h 8.9 km/h 82 % 0 mm
04:56 -12.8 °C -14.4 °C 33419.8 hPa West 1 km/h 5.6 km/h 82 % 0 mm
04:57 -12.8 °C -14.4 °C 33419.8 hPa North 0.3 km/h   82 % 0 mm
05:02 -12.8 °C -14.4 °C 33419.8 hPa Calm     82 % 0 mm
05:05 -12.8 °C -14.4 °C 33419.8 hPa Calm     82 % 0 mm
05:09 -12.8 °C -14.4 °C 33419.8 hPa Calm     82 % 0 mm
05:14 -12.8 °C -14.4 °C 33419.8 hPa Calm     82 % 0 mm
05:15 -12.8 °C -14.4 °C 33419.8 hPa Calm     82 % 0 mm
05:20 -12.8 °C -14.4 °C 33419.8 hPa Calm     82 % 0 mm
05:21 -12.8 °C -14.4 °C 33419.8 hPa Calm     82 % 0 mm
05:26 -12.8 °C -14.4 °C 33419.8 hPa Calm     82 % 0 mm
05:29 -12.8 °C -14.4 °C 33453.7 hPa Calm     82 % 0 mm
05:30 -12.8 °C -14.4 °C 33453.7 hPa Calm     82 % 0 mm
05:35 -12.8 °C -14.4 °C 33453.7 hPa Calm     82 % 0 mm
05:36 -12.8 °C -14.4 °C 33453.7 hPa Calm     82 % 0 mm
05:41 -12.8 °C -14.4 °C 33453.7 hPa Calm     82 % 0 mm
05:42 -12.8 °C -14.4 °C 33453.7 hPa Calm     82 % 0 mm
05:47 -12.8 °C -14.4 °C 33419.8 hPa Calm     82 % 0 mm
05:48 -12.8 °C -14.4 °C 33419.8 hPa Calm     82 % 0 mm
05:50 -12.8 °C -14.4 °C 33419.8 hPa Calm     82 % 0 mm
05:55 -12.8 °C -14.4 °C 33419.8 hPa Calm     82 % 0 mm
05:57 -12.8 °C -14.4 °C 33419.8 hPa Calm     82 % 0 mm
06:02 -12.8 °C -14.4 °C 33386 hPa Calm     82 % 0 mm
06:03 -12.8 °C -14.4 °C 33386 hPa Calm     82 % 0 mm
06:08 -12.8 °C -14.4 °C 33386 hPa Calm     82 % 0 mm
06:09 -12.8 °C -14.4 °C 33386 hPa Calm     82 % 0 mm
06:14 -12.8 °C -14.4 °C 33386 hPa Calm     82 % 0 mm
06:16 -12.8 °C -14.4 °C 33386 hPa Calm     82 % 0 mm
06:17 -12.8 °C -14.4 °C 33386 hPa Calm     82 % 0 mm
06:22 -12.8 °C -14.4 °C 33386 hPa Calm     82 % 0 mm
06:27 -12.8 °C -14.4 °C 33386 hPa Calm     82 % 0 mm
06:28 -12.8 °C -14.4 °C 33386 hPa Calm     82 % 0 mm
06:33 -12.8 °C -14.4 °C 33419.8 hPa Calm     82 % 0 mm
06:38 -12.8 °C -14.4 °C 33419.8 hPa Calm     82 % 0 mm
06:40 -12.8 °C -14.4 °C 33419.8 hPa Calm     82 % 0 mm
06:43 -12.8 °C -14.4 °C 33419.8 hPa Calm     82 % 0 mm
06:48 -12.8 °C -14.4 °C 33419.8 hPa West 0.5 km/h 6.4 km/h 82 % 0 mm
06:51 -12.8 °C -14.4 °C 33419.8 hPa West 0.8 km/h 6.4 km/h 82 % 0 mm
06:54 -12.8 °C -14.4 °C 33419.8 hPa West 0.8 km/h 6.4 km/h 82 % 0 mm
06:56 -12.8 °C -14.4 °C 33419.8 hPa WSW 2.1 km/h 9.8 km/h 82 % 0 mm
07:01 -12.8 °C -14.4 °C 33419.8 hPa SW 3.1 km/h 9.8 km/h 82 % 0 mm
07:08 -15.2 °C -16.1 °C 33419.8 hPa NNE 1.8 km/h 7.6 km/h 89 % 0 mm
07:13 -15.2 °C -16.2 °C 33419.8 hPa NW 0.8 km/h 4.2 km/h 89 % 0 mm
07:14 -15.2 °C -16.2 °C 33419.8 hPa NW 0.8 km/h 4.2 km/h 89 % 0 mm
07:19 -15.3 °C -16.2 °C 33419.8 hPa North 0.3 km/h   89 % 0 mm
07:24 -15.3 °C -16.2 °C 33419.8 hPa Calm     89 % 0 mm
07:25 -15.3 °C -16.2 °C 33419.8 hPa Calm     89 % 0 mm
07:27 -15.3 °C -16.3 °C 33419.8 hPa SE 1.6 km/h 7.6 km/h 89 % 0 mm
07:30 -15.3 °C -16.3 °C 33419.8 hPa SE 1.3 km/h 7.6 km/h 89 % 0 mm
07:34 -15.3 °C -16.3 °C 33419.8 hPa SSE 1.8 km/h 7.6 km/h 89 % 0 mm
07:35 -15.3 °C -16.2 °C 33419.8 hPa SSE 2.1 km/h 7.6 km/h 90 % 0 mm
07:40 -15.3 °C -16.2 °C 33419.8 hPa West 1.3 km/h 7.6 km/h 90 % 0 mm
07:42 -15.3 °C -16.2 °C 33419.8 hPa West 1.3 km/h 7.6 km/h 90 % 0 mm
07:45 -15.4 °C -16.2 °C 33419.8 hPa West 1 km/h 7.6 km/h 90 % 0 mm
07:50 -15.4 °C -16.2 °C 33419.8 hPa Calm     90 % 0 mm
07:51 -15.4 °C -16.2 °C 33419.8 hPa Calm     90 % 0 mm
07:56 -15.5 °C -16.3 °C 33419.8 hPa SW 1 km/h 6.4 km/h 90 % 0 mm
07:57 -15.5 °C -16.3 °C 33419.8 hPa SW 1.6 km/h 6.4 km/h 90 % 0 mm
07:59 -15.5 °C -16.3 °C 33453.7 hPa SW 1.8 km/h 6.4 km/h 90 % 0 mm
08:04 -15.6 °C -16.4 °C 33453.7 hPa WSW 3.1 km/h 6.4 km/h 90 % 0 mm
08:06 -15.6 °C -16.4 °C 33453.7 hPa NW 2.6 km/h 6.4 km/h 90 % 0 mm
08:11 -15.6 °C -16.4 °C 33453.7 hPa WNW 1.3 km/h 6.9 km/h 90 % 0 mm
08:12 -15.6 °C -16.4 °C 33453.7 hPa WNW 1 km/h 6.9 km/h 90 % 0 mm
08:17 -15.6 °C -16.4 °C 33453.7 hPa NW 1.3 km/h 6.9 km/h 90 % 0 mm
08:19 -15.6 °C -16.4 °C 33453.7 hPa NW 0.5 km/h 6.9 km/h 90 % 0 mm
08:24 -15.6 °C -16.3 °C 33453.7 hPa NNW 0.3 km/h 2.9 km/h 91 % 0 mm
08:25 -15.5 °C -16.2 °C 33453.7 hPa Calm     91 % 0 mm
08:30 -15.5 °C -16.2 °C 33453.7 hPa Calm     91 % 0 mm
08:31 -15.5 °C -16.2 °C 33453.7 hPa Calm     91 % 0 mm
08:36 -15.4 °C -16.2 °C 33453.7 hPa Calm     91 % 0 mm
08:40 -15.4 °C -16.2 °C 33453.7 hPa Calm     91 % 0 mm
08:41 -15.4 °C -16.2 °C 33453.7 hPa Calm     91 % 0 mm
08:46 -15.3 °C -16 °C 33453.7 hPa Calm     92 % 0 mm
08:51 -15.2 °C -15.9 °C 33453.7 hPa Calm     92 % 0 mm
08:56 -15.1 °C -15.7 °C 33453.7 hPa Calm     92 % 0 mm
08:57 -15.1 °C -15.7 °C 33453.7 hPa Calm     92 % 0 mm
09:02 -14.9 °C -15.6 °C 33453.7 hPa Calm     92 % 0 mm
09:04 -14.9 °C -15.6 °C 33453.7 hPa Calm     92 % 0 mm
09:09 -14.8 °C -15.4 °C 33453.7 hPa Calm     93 % 0 mm
09:10 -14.8 °C -15.4 °C 33453.7 hPa Calm     93 % 0 mm
09:15 -14.7 °C -15.3 °C 33453.7 hPa Calm     93 % 0 mm
09:18 -14.7 °C -15.2 °C 33453.7 hPa Calm     93 % 0 mm
09:23 -14.7 °C -15.2 °C 33453.7 hPa Calm   7.6 km/h 93 % 0 mm
09:27 -14.6 °C -15.2 °C 33453.7 hPa SW 2.6 km/h 8.9 km/h 93 % 0 mm
09:32 -14.6 °C -15.2 °C 33453.7 hPa SW 3.7 km/h 8.9 km/h 93 % 0 mm
09:37 -14.6 °C -15.1 °C 33453.7 hPa SW 1 km/h 6.4 km/h 94 % 0 mm
09:38 -14.6 °C -15.1 °C 33453.7 hPa SW 0.5 km/h 3.4 km/h 94 % 0 mm
09:43 -14.6 °C -15.1 °C 33453.7 hPa Calm     94 % 0 mm
09:48 -14.5 °C -15 °C 33453.7 hPa Calm     94 % 0 mm
09:53 -14.4 °C -14.9 °C 33453.7 hPa Calm     94 % 0 mm
09:58 -14.4 °C -14.9 °C 33490.9 hPa Calm     94 % 0 mm
09:59 -14.4 °C -14.9 °C 33490.9 hPa Calm     94 % 0 mm
10:03 -14.4 °C -14.9 °C 33490.9 hPa Calm     94 % 0 mm
10:07 -14.4 °C -14.9 °C 33490.9 hPa Calm     94 % 0 mm
10:08 -14.4 °C -14.9 °C 33490.9 hPa Calm     94 % 0 mm
10:13 -14.4 °C -14.9 °C 33490.9 hPa Calm     94 % 0 mm
10:14 -14.4 °C -14.9 °C 33490.9 hPa Calm     94 % 0 mm
10:19 -14.4 °C -14.9 °C 33490.9 hPa NW 1.6 km/h 6.4 km/h 94 % 7.62 mm
10:20 -14.4 °C -14.9 °C 33490.9 hPa NW 1.6 km/h 6.4 km/h 94 % 7.62 mm
10:23 -14.4 °C -14.9 °C 33490.9 hPa NW 1.6 km/h 6.4 km/h 94 % 7.62 mm
10:26 -14.4 °C -14.9 °C 33490.9 hPa North 0.5 km/h   94 % 20.32 mm
10:31 -14.3 °C -14.8 °C 33490.9 hPa Calm     94 % 25.4 mm
10:35 -14.3 °C -14.8 °C 33490.9 hPa Calm     94 % 25.4 mm
10:40 -14.3 °C -14.8 °C 33490.9 hPa Calm     94 % 33.02 mm
10:41 -14.3 °C -14.8 °C 33490.9 hPa Calm     94 % 38.1 mm
10:46 -14.3 °C -14.7 °C 33453.7 hPa Calm     95 % 45.72 mm
10:48 -14.3 °C -14.7 °C 33453.7 hPa ENE 0.3 km/h 7.6 km/h 95 % 45.72 mm
10:51 -14.3 °C -14.7 °C 33453.7 hPa ENE 0.3 km/h 7.6 km/h 95 % 45.72 mm
10:55 -14.3 °C -14.7 °C 33453.7 hPa SE 0.8 km/h 9.3 km/h 95 % 58.42 mm
11:01 -14.2 °C -14.6 °C 33490.9 hPa ENE 4.3 km/h 22 km/h 95 % 63.5 mm
11:06 -14.2 °C -14.6 °C 33490.9 hPa ENE 11.6 km/h 22.5 km/h 95 % 91.44 mm
11:08 -14.2 °C -14.6 °C 33490.9 hPa ENE 12.9 km/h 27.2 km/h 95 % 91.44 mm
11:09 -14.2 °C -14.6 °C 33490.9 hPa ENE 14.2 km/h 27.2 km/h 95 % 91.44 mm
11:14 -14.4 °C -14.9 °C 33490.9 hPa NE 15.3 km/h 27.2 km/h 94 % 96.52 mm
11:17 -14.4 °C -14.9 °C 33490.9 hPa NE 14.8 km/h 27.2 km/h 94 % 91.44 mm
11:18 -14.4 °C -14.9 °C 33490.9 hPa NE 15.6 km/h 25.4 km/h 94 % 91.44 mm
11:22 -14.4 °C -14.9 °C 33490.9 hPa NE 15.3 km/h 27.2 km/h 94 % 96.52 mm
11:27 -14.6 °C -15.1 °C 33490.9 hPa ENE 17.9 km/h 31.9 km/h 94 % 76.2 mm
11:28 -14.6 °C -15.1 °C 33490.9 hPa ENE 17.9 km/h 31.9 km/h 94 % 76.2 mm
11:33 -14.6 °C -15.2 °C 33490.9 hPa NE 17.1 km/h 31.9 km/h 93 % 76.2 mm
11:36 -14.7 °C -15.2 °C 33490.9 hPa NE 15 km/h 31.9 km/h 93 % 76.2 mm
11:41 -14.7 °C -15.2 °C 33490.9 hPa NE 14.5 km/h 31.9 km/h 93 % 63.5 mm
11:43 -14.7 °C -15.2 °C 33453.7 hPa ENE 14.2 km/h 31.9 km/h 93 % 63.5 mm
11:51 -14.7 °C -15.3 °C 33453.7 hPa ENE 17.5 km/h 33.6 km/h 92 % 63.5 mm
11:53 -14.7 °C -15.4 °C 33453.7 hPa ENE 18.8 km/h 33.6 km/h 91 % 58.42 mm
11:58 -14.7 °C -15.4 °C 33453.7 hPa ENE 18.8 km/h 31.4 km/h 91 % 50.8 mm
12:03 -14.8 °C -15.6 °C 33490.9 hPa East 18.2 km/h 33.6 km/h 90 % 38.1 mm
12:08 -14.8 °C -15.7 °C 33490.9 hPa East 18.3 km/h 33.6 km/h 90 % 33.02 mm
12:10 -14.8 °C -15.7 °C 33490.9 hPa East 18.8 km/h 33.6 km/h 90 % 33.02 mm
12:15 -14.9 °C -15.8 °C 33490.9 hPa ENE 16.1 km/h 27.7 km/h 89 % 33.02 mm
12:17 -14.9 °C -15.9 °C 33490.9 hPa ENE 14.5 km/h 26.2 km/h 89 % 38.1 mm
12:22 -14.9 °C -15.9 °C 33490.9 hPa NE 13.2 km/h 26.7 km/h 89 % 38.1 mm
12:27 -15 °C -16 °C 33490.9 hPa NE 13.2 km/h 26.7 km/h 88 % 45.72 mm
12:28 -15 °C -16 °C 33453.7 hPa NE 13.2 km/h 26.7 km/h 88 % 45.72 mm
12:33 -15.1 °C -16.1 °C 33453.7 hPa NE 10.9 km/h 24.3 km/h 88 % 50.8 mm
12:34 -15.1 °C -16.1 °C 33453.7 hPa NE 11.4 km/h 28.5 km/h 88 % 58.42 mm
12:39 -15.1 °C -16.1 °C 33453.7 hPa ENE 17.4 km/h 32.3 km/h 88 % 63.5 mm
12:41 -15.1 °C -16.1 °C 33453.7 hPa ENE 18.3 km/h 32.3 km/h 88 % 63.5 mm
12:48 -15.1 °C -16.1 °C 33490.9 hPa ENE 20.8 km/h 40.7 km/h 88 % 76.2 mm
12:53 -15.1 °C -16.2 °C 33490.9 hPa NE 22.9 km/h 40.7 km/h 87 % 71.12 mm
12:57 -15.2 °C -16.3 °C 33490.9 hPa ENE 22.9 km/h 34.8 km/h 87 % 76.2 mm
12:58 -15.2 °C -16.3 °C 33490.9 hPa ENE 22.2 km/h 34.8 km/h 87 % 76.2 mm
13:03 -15.2 °C -16.3 °C 33490.9 hPa ENE 20 km/h 41.7 km/h 87 % 71.12 mm
13:04 -15.2 °C -16.3 °C 33490.9 hPa ENE 19.5 km/h 41.7 km/h 87 % 76.2 mm
13:09 -15.2 °C -16.3 °C 33490.9 hPa ENE 15 km/h 32.3 km/h 87 % 76.2 mm
13:14 -15.2 °C -16.3 °C 33490.9 hPa ENE 14.5 km/h 32.3 km/h 87 % 76.2 mm
13:15 -15.2 °C -16.3 °C 33490.9 hPa NE 14.8 km/h 32.3 km/h 87 % 76.2 mm
13:18 -15.2 °C -16.3 °C 33490.9 hPa NE 15.8 km/h 26.2 km/h 87 % 76.2 mm
13:21 -15.2 °C -16.4 °C 33490.9 hPa NE 15 km/h 27.2 km/h 86 % 76.2 mm
13:26 -15.2 °C -16.4 °C 33490.9 hPa NE 14 km/h 28.5 km/h 86 % 83.82 mm
13:27 -15.2 °C -16.4 °C 33490.9 hPa ENE 13.7 km/h 28.5 km/h 86 % 83.82 mm
13:28 -15.2 °C -16.4 °C 33490.9 hPa ENE 14 km/h 28.5 km/h 86 % 76.2 mm
13:32 -15.3 °C -16.5 °C 33453.7 hPa ENE 16.9 km/h 28.5 km/h 86 % 76.2 mm
13:34 -15.3 °C -16.5 °C 33453.7 hPa ENE 19.5 km/h 28.5 km/h 86 % 76.2 mm
13:39 -15.3 °C -16.5 °C 33453.7 hPa ENE 18.8 km/h 27.7 km/h 86 % 71.12 mm
13:40 -15.3 °C -16.5 °C 33453.7 hPa ENE 18.2 km/h 26.7 km/h 86 % 71.12 mm
13:42 -15.3 °C -16.5 °C 33453.7 hPa East 17.5 km/h 27.7 km/h 86 % 71.12 mm
13:47 -15.3 °C -16.5 °C 33490.9 hPa East 15.3 km/h 27.7 km/h 86 % 63.5 mm
13:52 -15.4 °C -16.6 °C 33490.9 hPa East 15.6 km/h 27.2 km/h 86 % 71.12 mm
13:54 -15.4 °C -16.6 °C 33490.9 hPa East 15.6 km/h 27.2 km/h 86 % 76.2 mm
13:58 -15.4 °C -16.6 °C 33490.9 hPa ENE 15.8 km/h 27.2 km/h 86 % 71.12 mm
14:02 -15.4 °C -16.6 °C 33490.9 hPa ENE 14.8 km/h 27.2 km/h 86 % 76.2 mm
14:05 -15.4 °C -16.6 °C 33490.9 hPa ENE 12.4 km/h 24.8 km/h 86 % 71.12 mm
14:10 -15.5 °C -16.7 °C 33490.9 hPa East 11.1 km/h 24.8 km/h 86 % 63.5 mm
14:11 -15.5 °C -16.7 °C 33490.9 hPa East 11.1 km/h 24.8 km/h 86 % 71.12 mm
14:16 -15.5 °C -16.7 °C 33524.8 hPa East 13.2 km/h 20.9 km/h 86 % 63.5 mm
14:21 -15.5 °C -16.7 °C 33524.8 hPa East 13.5 km/h 27.7 km/h 86 % 58.42 mm
14:22 -15.5 °C -16.7 °C 33524.8 hPa East 13.5 km/h 27.7 km/h 86 % 58.42 mm
14:27 -15.6 °C -16.7 °C 33524.8 hPa East 12.2 km/h 27.7 km/h 86 % 58.42 mm
14:32 -15.6 °C -16.7 °C 33558.6 hPa East 10.1 km/h 15.6 km/h 86 % 50.8 mm
14:34 -15.6 °C -16.8 °C 33558.6 hPa East 8.5 km/h 15.6 km/h 86 % 50.8 mm
14:39 -15.7 °C -16.8 °C 33558.6 hPa ESE 7.7 km/h 16.9 km/h 86 % 45.72 mm
14:40 -15.7 °C -16.8 °C 33558.6 hPa ESE 8 km/h 16.9 km/h 86 % 45.72 mm
14:44 -15.7 °C -16.8 °C 33558.6 hPa SE 7.7 km/h 16.9 km/h 86 % 50.8 mm
14:48 -15.7 °C -16.9 °C 33558.6 hPa SE 6 km/h 15.6 km/h 86 % 45.72 mm
14:50 -15.7 °C -16.9 °C 33558.6 hPa SSE 6.3 km/h 16.3 km/h 86 % 45.72 mm
14:51 -15.7 °C -16.9 °C 33558.6 hPa South 6.3 km/h 16.3 km/h 86 % 45.72 mm
14:53 -15.7 °C -16.9 °C 33558.6 hPa South 5.6 km/h 16.3 km/h 86 % 45.72 mm
14:56 -15.8 °C -16.9 °C 33558.6 hPa SSE 6.9 km/h 17.9 km/h 86 % 45.72 mm
15:00 -15.8 °C -16.9 °C 33558.6 hPa ESE 6.4 km/h 17.9 km/h 86 % 45.72 mm
15:05 -15.8 °C -17 °C 33558.6 hPa ESE 3.7 km/h 14 km/h 86 % 45.72 mm
15:11 -15.9 °C -17.1 °C 33558.6 hPa ENE 5 km/h 14 km/h 86 % 45.72 mm
15:15 -16 °C -17.2 °C 33592.5 hPa ENE 9.3 km/h 16.3 km/h 86 % 45.72 mm
15:20 -16.1 °C -17.2 °C 33592.5 hPa NE 6.9 km/h 16.3 km/h 86 % 45.72 mm
15:22 -16.1 °C -17.2 °C 33592.5 hPa NE 5.6 km/h 12.7 km/h 86 % 45.72 mm
15:25 -16.1 °C -17.3 °C 33592.5 hPa NNE 2.6 km/h 8 km/h 86 % 50.8 mm
15:30 -16.2 °C -17.3 °C 33592.5 hPa East 2.3 km/h 8 km/h 86 % 50.8 mm
15:31 -16.2 °C -17.3 °C 33592.5 hPa East 2.9 km/h 8 km/h 86 % 58.42 mm
15:33 -16.2 °C -17.4 °C 33592.5 hPa East 3.1 km/h 8 km/h 86 % 58.42 mm
15:38 -16.3 °C -17.4 °C 33592.5 hPa East 3.9 km/h 6.9 km/h 86 % 63.5 mm
15:39 -16.3 °C -17.4 °C 33592.5 hPa East 3.4 km/h 6.9 km/h 86 % 63.5 mm
15:44 -16.4 °C -17.6 °C 33626.4 hPa East 1.3 km/h 6.9 km/h 86 % 71.12 mm
15:46 -16.4 °C -17.6 °C 33626.4 hPa North 0.3 km/h   86 % 63.5 mm
15:49 -16.6 °C -17.7 °C 33626.4 hPa Calm     86 % 63.5 mm
15:54 -16.6 °C -17.8 °C 33626.4 hPa Calm     86 % 63.5 mm
15:59 -16.8 °C -17.8 °C 33626.4 hPa SW 3.1 km/h 8.9 km/h 87 % 58.42 mm
16:00 -16.8 °C -17.8 °C 33626.4 hPa SW 3.1 km/h 8.9 km/h 87 % 58.42 mm
16:05 -16.9 °C -17.9 °C 33626.4 hPa SW 5.5 km/h 8.9 km/h 87 % 50.8 mm
16:06 -16.9 °C -17.9 °C 33626.4 hPa SSW 5 km/h 8.9 km/h 87 % 50.8 mm
16:11 -17 °C -18.2 °C 33626.4 hPa South 1.8 km/h 5.6 km/h 86 % 50.8 mm
16:12 -17 °C -18.2 °C 33626.4 hPa SSW 1.3 km/h 5.6 km/h 86 % 58.42 mm
16:17 -17.1 °C -18.3 °C 33626.4 hPa WNW 2.6 km/h 11.1 km/h 86 % 58.42 mm
16:18 -17.1 °C -18.3 °C 33626.4 hPa NW 2.9 km/h 11.1 km/h 86 % 58.42 mm
16:23 -17.2 °C -18.3 °C 33626.4 hPa WNW 4.3 km/h 11.1 km/h 86 % 58.42 mm
16:24 -17.2 °C -18.3 °C 33626.4 hPa WNW 4.3 km/h 11.1 km/h 86 % 58.42 mm
16:29 -17.2 °C -18.2 °C 33592.5 hPa SW 6 km/h 16.3 km/h 87 % 45.72 mm
16:30 -17.2 °C -18.2 °C 33592.5 hPa SW 6.4 km/h 16.3 km/h 87 % 50.8 mm
16:35 -17.2 °C -18.2 °C 33592.5 hPa SSW 6.8 km/h 16.3 km/h 87 % 33.02 mm
16:39 -17.2 °C -18.2 °C 33592.5 hPa SSW 5.5 km/h 11.1 km/h 87 % 25.4 mm
16:44 -17.2 °C -18.2 °C 33626.4 hPa WSW 4.7 km/h 11.1 km/h 87 % 25.4 mm
16:45 -17.2 °C -18.2 °C 33626.4 hPa WSW 4.7 km/h 11.1 km/h 87 % 25.4 mm
16:50 -17.2 °C -18.3 °C 33626.4 hPa NNW 1.3 km/h 5.6 km/h 87 % 25.4 mm
16:51 -17.2 °C -18.3 °C 33626.4 hPa North 1 km/h 5.6 km/h 87 % 25.4 mm
16:56 -17.3 °C -18.3 °C 33626.4 hPa NNE 0.5 km/h 5.1 km/h 87 % 20.32 mm
16:58 -17.3 °C -18.3 °C 33626.4 hPa NNE 0.5 km/h 5.1 km/h 87 % 20.32 mm
17:03 -17.3 °C -18.3 °C 33626.4 hPa Calm     88 % 20.32 mm
17:05 -17.3 °C -18.3 °C 33626.4 hPa Calm     88 % 20.32 mm
17:10 -17.3 °C -18.3 °C 33626.4 hPa Calm     88 % 20.32 mm
17:11 -17.3 °C -18.3 °C 33626.4 hPa Calm     88 % 12.7 mm
17:16 -17.3 °C -18.3 °C 33660.2 hPa South 0.5 km/h 6.4 km/h 88 % 12.7 mm
17:19 -17.3 °C -18.3 °C 33660.2 hPa South 0.5 km/h 6.4 km/h 88 % 12.7 mm
17:23 -17.3 °C -18.3 °C 33660.2 hPa SW 2.3 km/h 6.4 km/h 88 % 12.7 mm
17:27 -17.3 °C -18.3 °C 33660.2 hPa SW 1.8 km/h 6.4 km/h 88 % 12.7 mm
17:32 -17.3 °C -18.3 °C 33694.1 hPa SSW 1.8 km/h 6.4 km/h 88 % 12.7 mm
17:34 -17.3 °C -18.3 °C 33694.1 hPa South 2.3 km/h 6.4 km/h 88 % 12.7 mm
17:39 -17.3 °C -18.3 °C 33694.1 hPa South 2.6 km/h 6.4 km/h 88 % 12.7 mm
17:40 -17.3 °C -18.2 °C 33694.1 hPa South 2.3 km/h 7.6 km/h 89 % 7.62 mm
17:41 -17.3 °C -18.2 °C 33694.1 hPa South 2.6 km/h 7.6 km/h 89 % 7.62 mm
17:46 -17.3 °C -18.2 °C 33694.1 hPa SSW 1 km/h 7.6 km/h 89 % 7.62 mm
17:49 -17.3 °C -18.2 °C 33694.1 hPa SSW 1 km/h 7.6 km/h 89 % 12.7 mm
17:51 -17.3 °C -18.2 °C 33694.1 hPa SW 0.3 km/h 3.4 km/h 89 % 12.7 mm
17:55 -17.3 °C -18.2 °C 33694.1 hPa Calm     89 % 12.7 mm
17:56 -17.3 °C -18.2 °C 33694.1 hPa Calm     89 % 12.7 mm
18:01 -17.3 °C -18.2 °C 33694.1 hPa Calm     89 % 12.7 mm
18:02 -17.3 °C -18.2 °C 33694.1 hPa Calm     89 % 12.7 mm
18:07 -17.4 °C -18.3 °C 33694.1 hPa Calm     89 % 12.7 mm
18:08 -17.4 °C -18.3 °C 33694.1 hPa Calm     89 % 12.7 mm
18:13 -17.4 °C -18.3 °C 33694.1 hPa Calm     89 % 12.7 mm
18:18 -17.4 °C -18.3 °C 33694.1 hPa Calm     89 % 7.62 mm
18:19 -17.4 °C -18.3 °C 33694.1 hPa Calm     89 % 7.62 mm
18:24 -17.4 °C -18.3 °C 33694.1 hPa Calm     89 % 7.62 mm
18:29 -17.4 °C -18.2 °C 33694.1 hPa Calm     90 % 7.62 mm
18:30 -17.4 °C -18.2 °C 33694.1 hPa Calm     90 % 7.62 mm
18:35 -17.4 °C -18.2 °C 33694.1 hPa Calm     90 % 7.62 mm
18:36 -17.4 °C -18.2 °C 33694.1 hPa Calm     90 % 7.62 mm
18:41 -17.4 °C -18.2 °C 33694.1 hPa Calm     90 % 7.62 mm
18:46 -17.4 °C -18.2 °C 33731.3 hPa Calm     90 % 0 mm
18:50 -17.4 °C -18.2 °C 33731.3 hPa Calm     90 % 0 mm
18:56 -17.4 °C -18.2 °C 33731.3 hPa Calm     90 % 0 mm
18:57 -17.4 °C -18.2 °C 33731.3 hPa Calm     90 % 0 mm
19:02 -17.4 °C -18.2 °C 33731.3 hPa Calm     90 % 0 mm
19:03 -17.4 °C -18.2 °C 33731.3 hPa Calm     90 % 0 mm
19:05 -17.4 °C -18.2 °C 33731.3 hPa Calm     90 % 0 mm
19:09 -17.4 °C -18.2 °C 33731.3 hPa Calm     90 % 0 mm
19:11 -17.4 °C -18.2 °C 33731.3 hPa Calm     90 % 0 mm
19:15 -17.4 °C -18.2 °C 33731.3 hPa Calm     90 % 0 mm
19:20 -17.4 °C -18.2 °C 33731.3 hPa Calm     91 % 0 mm
19:25 -17.4 °C -18.1 °C 33731.3 hPa Calm     91 % 0 mm
19:27 -17.4 °C -18.1 °C 33731.3 hPa Calm     91 % 0 mm
19:30 -17.4 °C -18.1 °C 33751.6 hPa Calm     91 % 0 mm
19:34 -17.4 °C -18.1 °C 33751.6 hPa Calm     91 % 0 mm
19:39 -17.4 °C -18.1 °C 33751.6 hPa Calm     91 % 0 mm
19:44 -17.4 °C -18.1 °C 33751.6 hPa Calm     91 % 7.62 mm
19:45 -17.4 °C -18.1 °C 33751.6 hPa Calm     91 % 7.62 mm
19:46 -17.4 °C -18.1 °C 33751.6 hPa Calm     91 % 7.62 mm
19:49 -17.4 °C -18.1 °C 33751.6 hPa Calm     91 % 7.62 mm
19:52 -17.4 °C -18.1 °C 33751.6 hPa Calm     91 % 7.62 mm
19:57 -17.4 °C -18 °C 33751.6 hPa Calm     92 % 7.62 mm
20:02 -17.4 °C -18 °C 33788.9 hPa Calm     92 % 7.62 mm
20:03 -17.4 °C -18 °C 33788.9 hPa Calm     92 % 7.62 mm
20:07 -17.4 °C -18.1 °C 33788.9 hPa Calm     92 % 7.62 mm
20:12 -17.4 °C -18.1 °C 33788.9 hPa Calm     92 % 7.62 mm
20:14 -17.4 °C -18.1 °C 33751.6 hPa Calm     92 % 7.62 mm
20:18 -17.4 °C -18.1 °C 33751.6 hPa Calm     92 % 7.62 mm
20:19 -17.4 °C -18.1 °C 33751.6 hPa Calm     92 % 7.62 mm
20:27 -17.4 °C -18.1 °C 33751.6 hPa Calm     92 % 7.62 mm
20:28 -17.4 °C -18.1 °C 33751.6 hPa Calm     92 % 7.62 mm
20:33 -17.4 °C -18.1 °C 33751.6 hPa Calm     92 % 7.62 mm
20:34 -17.4 °C -18.1 °C 33751.6 hPa Calm     92 % 7.62 mm
20:39 -17.4 °C -18.1 °C 33751.6 hPa Calm     92 % 7.62 mm
20:42 -17.4 °C -18.1 °C 33751.6 hPa Calm     92 % 7.62 mm
20:47 -17.4 °C -18 °C 33751.6 hPa Calm     93 % 7.62 mm
20:52 -17.4 °C -18 °C 33751.6 hPa Calm     93 % 7.62 mm
20:54 -17.4 °C -18 °C 33751.6 hPa Calm     93 % 7.62 mm
20:59 -17.4 °C -18 °C 33788.9 hPa Calm     93 % 7.62 mm
21:04 -17.4 °C -18 °C 33788.9 hPa Calm     93 % 7.62 mm
21:05 -17.4 °C -18 °C 33788.9 hPa Calm     93 % 7.62 mm
21:08 -17.4 °C -18 °C 33788.9 hPa Calm     93 % 7.62 mm
21:10 -17.4 °C -18 °C 33788.9 hPa Calm   2.3 km/h 93 % 7.62 mm
21:15 -17.4 °C -18 °C 33788.9 hPa Calm   2.3 km/h 93 % 7.62 mm
21:18 -17.4 °C -18 °C 33788.9 hPa Calm   2.3 km/h 93 % 7.62 mm
21:23 -17.4 °C -18 °C 33788.9 hPa Calm     93 % 7.62 mm
21:25 -17.4 °C -18 °C 33788.9 hPa Calm     93 % 7.62 mm
21:30 -17.4 °C -18 °C 33822.8 hPa Calm     93 % 7.62 mm
21:35 -17.4 °C -18 °C 33822.8 hPa Calm     93 % 7.62 mm
21:36 -17.4 °C -18 °C 33822.8 hPa Calm     93 % 7.62 mm
21:37 -17.4 °C -18 °C 33822.8 hPa Calm     93 % 7.62 mm
21:42 -17.4 °C -17.9 °C 33822.8 hPa Calm     93 % 7.62 mm
21:47 -17.4 °C -17.9 °C 33822.8 hPa Calm     93 % 7.62 mm
21:49 -17.4 °C -17.9 °C 33822.8 hPa Calm     93 % 7.62 mm
21:54 -17.4 °C -17.9 °C 33822.8 hPa Calm     94 % 7.62 mm
21:56 -17.4 °C -17.9 °C 33822.8 hPa Calm     94 % 7.62 mm
22:01 -17.4 °C -17.9 °C 33822.8 hPa Calm     94 % 7.62 mm
22:06 -17.4 °C -17.9 °C 33822.8 hPa Calm     94 % 7.62 mm
22:08 -17.4 °C -17.9 °C 33822.8 hPa Calm     94 % 7.62 mm
22:13 -17.4 °C -17.9 °C 33822.8 hPa Calm     94 % 7.62 mm
22:15 -17.4 °C -17.9 °C 33822.8 hPa Calm     94 % 0 mm
22:19 -17.4 °C -17.9 °C 33822.8 hPa Calm     94 % 0 mm
22:21 -17.4 °C -17.9 °C 33822.8 hPa Calm     94 % 0 mm
22:26 -17.4 °C -17.9 °C 33822.8 hPa Calm     94 % 0 mm
22:27 -17.4 °C -17.9 °C 33822.8 hPa Calm     94 % 0 mm
22:32 -17.4 °C -17.9 °C 33788.9 hPa Calm     94 % 7.62 mm
22:35 -17.4 °C -17.9 °C 33788.9 hPa Calm     94 % 7.62 mm
22:40 -17.4 °C -17.9 °C 33788.9 hPa Calm     94 % 7.62 mm
22:45 -17.4 °C -17.9 °C 33822.8 hPa Calm     94 % 7.62 mm
22:49 -17.4 °C -17.9 °C 33822.8 hPa Calm     94 % 7.62 mm
22:54 -17.4 °C -17.9 °C 33822.8 hPa Calm     94 % 7.62 mm
22:55 -17.4 °C -17.9 °C 33822.8 hPa Calm     94 % 7.62 mm
22:58 -17.4 °C -17.9 °C 33822.8 hPa Calm     94 % 7.62 mm
23:01 -17.4 °C -17.9 °C 33822.8 hPa Calm     94 % 7.62 mm
23:06 -17.4 °C -17.9 °C 33822.8 hPa Calm     94 % 7.62 mm
23:09 -17.4 °C -17.9 °C 33822.8 hPa Calm     94 % 7.62 mm
23:14 -17.4 °C -17.9 °C 33856.6 hPa Calm     94 % 7.62 mm
23:19 -17.4 °C -17.9 °C 33856.6 hPa Calm     94 % 7.62 mm
23:24 -17.4 °C -17.9 °C 33856.6 hPa Calm     94 % 7.62 mm
23:29 -17.4 °C -17.9 °C 33822.8 hPa Calm     94 % 7.62 mm
23:30 -17.4 °C -17.9 °C 33822.8 hPa Calm     94 % 0 mm
23:31 -17.4 °C -17.9 °C 33822.8 hPa Calm     94 % 0 mm
23:36 -17.4 °C -17.8 °C 33822.8 hPa Calm     95 % 0 mm
23:37 -17.4 °C -17.8 °C 33822.8 hPa Calm     95 % 0 mm
23:42 -17.4 °C -17.8 °C 33822.8 hPa Calm     95 % 0 mm
23:43 -17.4 °C -17.8 °C 33822.8 hPa Calm     95 % 0 mm
23:48 -17.4 °C -17.8 °C 33822.8 hPa Calm     95 % 0 mm
23:49 -17.4 °C -17.8 °C 33822.8 hPa Calm     95 % 0 mm
23:50 -17.4 °C -17.8 °C 33822.8 hPa Calm     95 % 0 mm
23:55 -17.4 °C -17.8 °C 33822.8 hPa Calm     95 % 0 mm
23:58 -17.4 °C -17.8 °C 33822.8 hPa Calm     95 % 0 mm
Vremenska postaja Senovo
Podatki zbrani iz Weather Underground - 3.75 mb

Script developed by  Jim McMurry - jmcmurry@mwt.net Adapted for the template by  Wim van der Kuil - Leuven-Template.eu

Vremenski podatki so objavljeni na:

European Weather Network

WeatherCloud

Weather Underground

AWEKAS

HAMweather, WeatherForYou, PWS Weather

MapView

Geostik

Slovenia weather network

Oprema, ki se uporablja:

Vremenski program
Cumulus

Vremenski server
Asus

Cumulus

Asus